Radcliffe, Iowa
Current Conditions -  °F | °C
As of 10:55 PM on Thursday 30 Oct 2014 (Local Time) from KIFA Reporting Station
Overcast Overcast  
Wind Chill: 36°   Ceiling: 3300
Heat Index: 44°   Visibility: 10mi
Dew Point: 35°   Wind: 20mph
Humidity: 68%   Direction: 340°NNW
Pressure: 30.24"   Gusts: 26mph
Location:  42.32°N, 93.43°W
Report Text: KIFA 310355Z AUTO 34017G23KT 10SM OVC033 07/01 A3024 RMK AO2 T00690014
Loading
Personal Weather Stations






























Interactive Weather Map
Tropical Storm Tracking
New forecast layout! Learn more

10-Day Weather Forecast

Advertisements
Track Severe Weather on mobile